Hlavní strana
METAR-TAF:

METAR-TAF

Letiště :

Ouagadougou, Burkina Faso

zeměpisná šířka: 12-21N, zeměpisná délka: 001-31W, výška: 316 m

Aktuální stav počasí

Zpráva byla vytvořena před 2 hodinami a 39 minutami, v 23:00 UTC
Severoseverovýchodní vítr 3 kt
Teplota 24°C
Vlhkost vzduchu 22%
Tlak 1013 hPa
Viditelnost: 8000 m

METAR: DFFD 252300Z 02003KT 8000 NSC 24/01 Q1013 NOSIG

Čas: 01:39 (01:39 UTC)

Předpověď počasí

Zpráva byla vytvořena před 2 hodinami a 39 minutami, v 23:00 UTC
Předpověď platná od 26 v 00 UTC do 27 v 06 UTC
Východoseverovýchodní vítr 10 kt
Viditelnost: 8000 m
Změna
od 26 v 04 UTC do 26 v 06 UTC
Viditelnost: 3500 m
rozsáhlý prach
Dočasný
od 26 v 06 UTC do 26 v 10 UTC
Viditelnost: 2000 m
rozsáhlý prach

TAF: DFFD 252300Z 2600/2706 06010KT 8000 NSC BECMG 2604/2606 3500 DU TEMPO 2606/2610 2000 DU

Stav a předpovědi počasí z více než 4 000 letišť (zprávy METAR a TAF).

Červené a žluté tečky na mapě představují dostupné meteorologické stanice.

Když kurzor umístíte na tečku, zobrazí se název stanice.

Pak kliknutím zobrazíte stav a předpověď počasí.

Chcete-li změnit mapu, kliknutím na zelené tlačítko se znaménkem +mapu přiblížíte, kliknutím na zelené tlačítko se znaménkem – mapu oddálíte a kliknutím na zelené šipky přejdete na sousední mapy.


METAR-TAF: